createdAt,value
2022-11-02T00:02:04.403Z,11.30
2022-11-02T00:04:52.289Z,11.40
2022-11-02T00:07:41.481Z,10.90
2022-11-02T00:10:30.089Z,11.80
2022-11-02T00:13:17.759Z,11.10
2022-11-02T00:16:10.261Z,10.80
2022-11-02T00:19:01.620Z,11.50
2022-11-02T00:21:49.803Z,11.50
2022-11-02T00:24:37.294Z,11.20
2022-11-02T00:27:25.309Z,11.40
2022-11-02T00:30:13.299Z,11.70
2022-11-02T00:33:01.137Z,11.20
2022-11-02T00:35:49.176Z,11.00
2022-11-02T00:38:36.917Z,10.70
2022-11-02T00:41:24.663Z,10.60
2022-11-02T00:44:12.271Z,11.00
2022-11-02T00:46:59.932Z,9.20
2022-11-02T00:49:47.734Z,9.60
2022-11-02T00:52:35.481Z,9.90
2022-11-02T00:55:23.445Z,10.30
2022-11-02T00:58:12.138Z,9.00
2022-11-02T01:01:08.213Z,9.10
2022-11-02T01:03:57.897Z,8.90
2022-11-02T01:06:46.576Z,9.60
2022-11-02T01:09:35.966Z,9.60
2022-11-02T01:12:24.651Z,9.10
2022-11-02T01:15:12.482Z,9.40
2022-11-02T01:18:00.182Z,9.50
2022-11-02T01:20:48.377Z,9.40
2022-11-02T01:23:38.272Z,9.10
2022-11-02T01:26:25.855Z,9.80
2022-11-02T01:29:13.503Z,9.20
2022-11-02T01:32:01.504Z,9.20
2022-11-02T01:34:49.317Z,8.40
2022-11-02T01:37:37.086Z,8.90
2022-11-02T01:40:24.966Z,8.20
2022-11-02T01:43:24.272Z,8.40
2022-11-02T01:46:11.746Z,8.60
2022-11-02T01:49:06.948Z,8.00
2022-11-02T01:52:03.570Z,8.20
2022-11-02T01:55:05.006Z,8.90
2022-11-02T01:58:03.201Z,8.00
2022-11-02T02:00:55.196Z,8.20
2022-11-02T02:03:43.930Z,8.40
2022-11-02T02:06:32.479Z,8.50
2022-11-02T02:09:21.848Z,8.40
2022-11-02T02:12:09.245Z,8.20
2022-11-02T02:15:00.172Z,8.10
2022-11-02T02:18:11.612Z,8.00
2022-11-02T02:21:50.107Z,8.00
2022-11-02T02:25:11.069Z,8.30
2022-11-02T02:28:24.102Z,9.00
2022-11-02T02:31:44.070Z,8.10
2022-11-02T02:34:41.698Z,8.00
2022-11-02T02:37:43.066Z,7.50
2022-11-02T02:41:12.719Z,7.90
2022-11-02T02:44:03.208Z,7.90
2022-11-02T02:47:00.964Z,8.10
2022-11-02T02:49:56.249Z,7.30
2022-11-02T02:52:49.027Z,7.70
2022-11-02T02:55:43.928Z,7.20
2022-11-02T02:58:40.396Z,7.80
2022-11-02T03:01:28.937Z,7.60
2022-11-02T03:04:16.969Z,8.10
2022-11-02T03:07:05.060Z,8.30
2022-11-02T03:10:08.331Z,8.00
2022-11-02T03:13:42.962Z,9.00
2022-11-02T03:17:04.333Z,9.00
2022-11-02T03:19:55.296Z,7.10
2022-11-02T03:23:19.629Z,9.50
2022-11-02T03:26:21.696Z,11.10
2022-11-02T03:29:48.661Z,10.70
2022-11-02T03:33:07.437Z,10.30
2022-11-02T03:36:12.638Z,10.70
2022-11-02T03:39:08.287Z,11.40
2022-11-02T03:42:01.076Z,10.70
2022-11-02T03:44:57.447Z,11.00
2022-11-02T03:47:53.131Z,10.70
2022-11-02T03:50:52.305Z,11.60
2022-11-02T03:54:09.070Z,11.00
2022-11-02T03:59:52.974Z,11.60
2022-11-02T04:02:45.285Z,11.00
2022-11-02T04:05:36.403Z,11.20
2022-11-02T04:08:38.046Z,11.50
2022-11-02T04:11:47.489Z,11.90
2022-11-02T04:14:38.011Z,11.20
2022-11-02T04:17:46.103Z,12.40
2022-11-02T04:20:34.796Z,11.00
2022-11-02T04:24:00.678Z,10.70
2022-11-02T04:26:48.808Z,11.20
2022-11-02T04:29:38.205Z,11.80
2022-11-02T04:32:44.337Z,11.00
2022-11-02T04:35:35.805Z,11.10
2022-11-02T04:38:41.619Z,11.20
2022-11-02T04:41:44.320Z,11.80
2022-11-02T04:44:39.500Z,10.40
2022-11-02T04:47:33.291Z,7.80
2022-11-02T04:50:20.912Z,11.40
2022-11-02T04:53:09.478Z,11.10
2022-11-02T04:55:58.769Z,12.00
2022-11-02T04:58:55.555Z,11.30
2022-11-02T05:01:43.721Z,11.90
2022-11-02T05:04:31.818Z,11.40
2022-11-02T05:07:19.738Z,12.00
2022-11-02T05:10:08.160Z,11.10
2022-11-02T05:13:00.612Z,11.60
2022-11-02T05:15:52.119Z,12.00
2022-11-02T05:18:40.017Z,12.30
2022-11-02T05:21:28.220Z,11.40
2022-11-02T05:24:16.501Z,12.40
2022-11-02T05:27:04.570Z,11.20
2022-11-02T05:29:53.854Z,11.40
2022-11-02T05:32:41.631Z,11.70
2022-11-02T05:35:29.602Z,10.40
2022-11-02T05:38:17.678Z,10.50
2022-11-02T05:41:05.828Z,11.90
2022-11-02T05:43:56.321Z,11.00
2022-11-02T05:46:45.088Z,11.50
2022-11-02T05:49:33.233Z,10.70
2022-11-02T05:52:21.161Z,9.50
2022-11-02T05:55:09.385Z,9.60
2022-11-02T05:57:57.336Z,10.10
2022-11-02T06:00:45.138Z,10.00
2022-11-02T06:03:33.768Z,9.40
2022-11-02T06:06:22.044Z,9.20
2022-11-02T06:09:09.833Z,9.20
2022-11-02T06:11:57.812Z,9.60
2022-11-02T06:14:45.843Z,9.70
2022-11-02T06:17:41.010Z,10.80
2022-11-02T06:20:28.518Z,11.40
2022-11-02T06:23:18.321Z,10.50
2022-11-02T06:26:06.348Z,11.20
2022-11-02T06:28:53.923Z,10.50
2022-11-02T06:31:41.808Z,10.90
2022-11-02T06:34:29.752Z,10.90
2022-11-02T06:37:17.610Z,11.30
2022-11-02T06:40:06.109Z,10.90
2022-11-02T06:43:15.437Z,12.10
2022-11-02T06:46:05.897Z,11.00
2022-11-02T06:48:54.280Z,10.60
2022-11-02T06:51:41.745Z,11.30
2022-11-02T06:54:29.469Z,14.40
2022-11-02T06:57:17.220Z,14.20
2022-11-02T07:00:20.892Z,12.90
2022-11-02T07:03:11.880Z,13.10
2022-11-02T07:05:59.780Z,14.80
2022-11-02T07:08:47.483Z,12.30
2022-11-02T07:11:35.458Z,13.60
2022-11-02T07:14:23.622Z,11.90
2022-11-02T07:17:11.520Z,12.00
2022-11-02T07:19:59.305Z,11.30
2022-11-02T07:23:00.266Z,14.80
2022-11-02T07:25:47.825Z,13.00
2022-11-02T07:28:38.336Z,17.90
2022-11-02T07:31:26.212Z,11.50
2022-11-02T07:34:17.100Z,19.40
2022-11-02T07:37:05.201Z,13.40
2022-11-02T07:39:52.916Z,13.30
2022-11-02T07:42:45.837Z,13.20
2022-11-02T07:45:33.785Z,13.40
2022-11-02T07:48:21.329Z,12.60
2022-11-02T07:51:11.350Z,13.60
2022-11-02T07:54:01.136Z,13.50
2022-11-02T07:56:48.851Z,12.00
2022-11-02T07:59:36.682Z,10.20
2022-11-02T08:02:24.628Z,12.30
2022-11-02T08:05:12.466Z,10.80
2022-11-02T08:08:06.963Z,11.00
2022-11-02T08:10:55.153Z,10.00
2022-11-02T08:13:42.842Z,11.00
2022-11-02T08:16:30.799Z,10.90
2022-11-02T08:19:18.632Z,11.00
2022-11-02T08:22:06.380Z,11.00
2022-11-02T08:24:54.152Z,10.60
2022-11-02T08:27:42.295Z,16.10
2022-11-02T08:30:32.148Z,10.70
2022-11-02T08:33:21.126Z,11.50
2022-11-02T08:36:09.177Z,10.40
2022-11-02T08:39:00.144Z,9.40
2022-11-02T08:41:47.973Z,9.40
2022-11-02T08:44:41.473Z,10.20
2022-11-02T08:47:30.398Z,9.80
2022-11-02T08:50:18.417Z,10.70
2022-11-02T08:53:07.626Z,12.10
2022-11-02T08:55:59.052Z,10.40
2022-11-02T08:58:46.762Z,10.20
2022-11-02T09:01:34.489Z,12.30
2022-11-02T09:04:22.853Z,11.10
2022-11-02T09:07:10.828Z,10.10
2022-11-02T09:09:58.773Z,10.10
2022-11-02T09:12:46.608Z,10.10
2022-11-02T09:15:36.970Z,9.50
2022-11-02T09:18:25.086Z,9.60
2022-11-02T09:21:12.957Z,9.80
2022-11-02T09:24:00.828Z,9.00
2022-11-02T09:26:49.627Z,9.60
2022-11-02T09:29:37.261Z,9.90
2022-11-02T09:32:25.292Z,9.00
2022-11-02T09:35:13.928Z,8.40
2022-11-02T09:38:02.014Z,8.10
2022-11-02T09:41:08.810Z,6.50
2022-11-02T09:44:12.904Z,6.90
2022-11-02T09:47:55.921Z,6.60
2022-11-02T09:53:32.947Z,7.10
2022-11-02T09:56:20.784Z,7.60
2022-11-02T09:59:17.379Z,6.90
2022-11-02T10:02:26.791Z,6.20
2022-11-02T10:05:56.898Z,5.90
2022-11-02T10:09:28.390Z,6.10
2022-11-02T10:12:36.225Z,5.40
2022-11-02T10:15:50.280Z,5.50
2022-11-02T10:18:40.665Z,5.00
2022-11-02T10:21:38.697Z,5.00
2022-11-02T10:24:38.803Z,4.30
2022-11-02T10:27:31.601Z,4.80
2022-11-02T10:30:21.455Z,4.10
2022-11-02T10:33:19.909Z,4.90
2022-11-02T10:36:32.273Z,4.60
2022-11-02T10:40:10.773Z,4.80
2022-11-02T10:43:22.559Z,4.20
2022-11-02T10:46:45.260Z,4.20
2022-11-02T10:50:17.371Z,3.30
2022-11-02T10:53:40.793Z,4.10
2022-11-02T10:56:24.705Z,4.10
2022-11-02T10:59:17.810Z,4.00
2022-11-02T11:02:14.156Z,3.50
2022-11-02T11:05:14.569Z,4.10
2022-11-02T11:08:03.228Z,4.00
2022-11-02T11:10:52.111Z,3.80
2022-11-02T11:16:56.212Z,4.10
2022-11-02T11:19:56.721Z,4.40
2022-11-02T11:22:44.609Z,4.60
2022-11-02T11:25:32.461Z,4.10
2022-11-02T11:28:56.850Z,4.70
2022-11-02T11:31:44.518Z,4.80
2022-11-02T11:34:36.273Z,5.80
2022-11-02T11:37:25.829Z,5.20
2022-11-02T11:40:22.590Z,5.70
2022-11-02T11:43:16.087Z,6.10
2022-11-02T11:46:07.464Z,6.60
2022-11-02T11:48:59.859Z,6.70
2022-11-02T11:51:52.808Z,6.40
2022-11-02T11:54:40.709Z,6.60
2022-11-02T11:57:32.277Z,8.10
2022-11-02T12:00:29.710Z,8.10
2022-11-02T12:03:17.330Z,7.10
2022-11-02T12:07:00.520Z,7.60
2022-11-02T12:10:13.625Z,7.40
2022-11-02T12:13:20.073Z,7.70
2022-11-02T12:16:17.626Z,7.50
2022-11-02T12:19:40.852Z,7.90
2022-11-02T12:23:05.763Z,8.00
2022-11-02T12:26:28.958Z,7.50
2022-11-02T12:29:38.346Z,7.10
2022-11-02T12:33:15.666Z,8.10
2022-11-02T12:36:24.054Z,8.10
2022-11-02T12:39:54.224Z,7.60
2022-11-02T12:43:05.157Z,7.80
2022-11-02T12:46:20.919Z,7.50
2022-11-02T12:49:42.233Z,7.80
2022-11-02T12:52:58.176Z,6.80
2022-11-02T12:55:51.678Z,8.00
2022-11-02T12:58:41.524Z,7.70
2022-11-02T13:01:40.698Z,7.50
2022-11-02T13:04:36.935Z,7.00
2022-11-02T13:07:39.916Z,7.30
2022-11-02T13:10:52.263Z,7.20
2022-11-02T13:13:51.949Z,6.60
2022-11-02T13:16:44.547Z,6.50
2022-11-02T13:19:45.274Z,7.30
2022-11-02T13:22:38.346Z,7.00
2022-11-02T13:25:38.671Z,6.20
2022-11-02T13:28:46.084Z,6.40
2022-11-02T13:31:51.257Z,6.40
2022-11-02T13:34:46.029Z,6.20
2022-11-02T13:37:43.886Z,5.90
2022-11-02T13:40:43.343Z,6.20
2022-11-02T13:44:02.108Z,5.50
2022-11-02T13:47:20.414Z,5.90
2022-11-02T13:50:15.363Z,5.50
2022-11-02T13:53:08.914Z,6.30
2022-11-02T13:56:02.050Z,6.50
2022-11-02T13:59:10.476Z,6.10
2022-11-02T14:02:01.773Z,5.70
2022-11-02T14:04:51.004Z,6.60
2022-11-02T14:07:41.808Z,5.60
2022-11-02T14:10:35.731Z,5.40
2022-11-02T14:14:09.993Z,5.40
2022-11-02T14:16:59.701Z,5.20
2022-11-02T14:19:47.593Z,6.10
2022-11-02T14:22:35.465Z,5.70
2022-11-02T14:25:45.856Z,5.40
2022-11-02T14:28:44.536Z,5.40
2022-11-02T14:31:47.822Z,6.00
2022-11-02T14:35:04.772Z,6.30
2022-11-02T14:38:40.291Z,5.60
2022-11-02T14:42:08.825Z,5.90
2022-11-02T14:45:28.541Z,6.00
2022-11-02T14:48:17.123Z,5.40
2022-11-02T14:51:13.687Z,5.60
2022-11-02T14:54:19.942Z,6.60
2022-11-02T14:57:35.223Z,5.40
2022-11-02T15:00:29.794Z,6.30
2022-11-02T15:03:24.385Z,6.30
2022-11-02T15:06:12.840Z,7.40
2022-11-02T15:09:04.569Z,6.60
2022-11-02T15:12:02.254Z,6.20
2022-11-02T15:14:52.015Z,6.30
2022-11-02T15:18:20.096Z,6.70
2022-11-02T15:21:11.319Z,6.10
2022-11-02T15:24:32.530Z,6.50
2022-11-02T15:27:29.926Z,5.10
2022-11-02T15:30:28.429Z,5.80
2022-11-02T15:33:45.598Z,6.10
2022-11-02T15:36:38.115Z,5.50
2022-11-02T15:39:31.263Z,4.90
2022-11-02T15:42:27.844Z,5.40
2022-11-02T15:46:19.925Z,6.10
2022-11-02T15:49:38.817Z,5.30
2022-11-02T15:53:22.321Z,5.30
2022-11-02T15:56:30.752Z,6.20
2022-11-02T15:59:49.925Z,5.80
2022-11-02T16:02:56.765Z,5.60
2022-11-02T16:05:47.952Z,6.10
2022-11-02T16:08:38.158Z,6.00
2022-11-02T16:11:30.504Z,5.90
2022-11-02T16:14:19.020Z,6.10
2022-11-02T16:17:29.858Z,5.80
2022-11-02T16:20:26.257Z,6.20
2022-11-02T16:23:44.049Z,8.70
2022-11-02T16:26:32.609Z,6.60
2022-11-02T16:29:34.103Z,6.60
2022-11-02T16:32:25.645Z,5.10
2022-11-02T16:35:19.958Z,6.10
2022-11-02T16:38:14.067Z,6.60
2022-11-02T16:41:12.891Z,7.00
2022-11-02T16:44:09.067Z,7.10
2022-11-02T16:47:12.040Z,6.30
2022-11-02T16:50:02.805Z,6.60
2022-11-02T16:53:29.095Z,6.00
2022-11-02T16:56:32.673Z,6.10
2022-11-02T16:59:22.194Z,6.00
2022-11-02T17:02:12.996Z,5.80
2022-11-02T17:05:05.866Z,5.10
2022-11-02T17:08:44.248Z,7.00
2022-11-02T17:11:37.203Z,5.80
2022-11-02T17:14:28.903Z,5.40
2022-11-02T17:17:30.773Z,5.70
2022-11-02T17:20:24.462Z,5.60
2022-11-02T17:23:36.565Z,5.80
2022-11-02T17:26:28.543Z,6.50
2022-11-02T17:29:25.615Z,6.20
2022-11-02T17:32:19.501Z,5.50
2022-11-02T17:35:20.899Z,6.50
2022-11-02T17:38:18.329Z,5.50
2022-11-02T17:41:31.864Z,5.30
2022-11-02T17:44:21.150Z,6.30
2022-11-02T17:47:18.035Z,5.50
2022-11-02T17:50:12.824Z,5.10
2022-11-02T17:53:06.608Z,5.50
2022-11-02T17:55:58.383Z,6.00
2022-11-02T17:58:46.147Z,6.70
2022-11-02T18:01:34.314Z,7.60
2022-11-02T18:04:28.511Z,7.30
2022-11-02T18:07:18.304Z,7.40
2022-11-02T18:10:07.189Z,7.20
2022-11-02T18:12:58.896Z,6.70
2022-11-02T18:15:48.590Z,6.20
2022-11-02T18:18:40.904Z,7.30
2022-11-02T18:21:32.036Z,6.90
2022-11-02T18:24:20.880Z,7.10
2022-11-02T18:27:08.534Z,6.80
2022-11-02T18:30:01.193Z,5.30
2022-11-02T18:32:52.356Z,6.40
2022-11-02T18:35:49.759Z,5.90
2022-11-02T18:38:45.911Z,5.50
2022-11-02T18:41:35.527Z,4.40
2022-11-02T18:44:24.019Z,5.50
2022-11-02T18:47:12.731Z,4.60
2022-11-02T18:50:06.957Z,4.70
2022-11-02T18:52:59.042Z,5.90
2022-11-02T18:55:46.784Z,5.80
2022-11-02T18:58:36.116Z,5.00
2022-11-02T19:01:25.546Z,5.50
2022-11-02T19:04:17.373Z,6.50
2022-11-02T19:07:24.356Z,5.10
2022-11-02T19:10:12.195Z,6.50
2022-11-02T19:12:59.917Z,5.40
2022-11-02T19:15:50.679Z,5.00
2022-11-02T19:18:38.556Z,4.70
2022-11-02T19:21:26.328Z,5.10
2022-11-02T19:24:14.048Z,4.90
2022-11-02T19:27:01.864Z,4.90
2022-11-02T19:29:50.526Z,5.20
2022-11-02T19:32:38.623Z,4.70
2022-11-02T19:35:27.410Z,4.70
2022-11-02T19:38:16.268Z,4.70
2022-11-02T19:41:10.966Z,5.30
2022-11-02T19:43:58.805Z,4.80
2022-11-02T19:46:52.483Z,4.80
2022-11-02T19:49:40.715Z,4.50
2022-11-02T19:52:28.792Z,4.30
2022-11-02T19:55:17.915Z,4.90
2022-11-02T19:58:05.818Z,4.60
2022-11-02T20:00:54.159Z,4.30
2022-11-02T20:03:43.614Z,4.30
2022-11-02T20:06:38.319Z,4.30
2022-11-02T20:09:26.431Z,4.30
2022-11-02T20:12:14.572Z,4.70
2022-11-02T20:15:02.481Z,4.30
2022-11-02T20:18:13.489Z,4.50
2022-11-02T20:21:14.222Z,4.50
2022-11-02T20:24:02.343Z,4.20
2022-11-02T20:26:50.111Z,4.90
2022-11-02T20:29:38.137Z,4.40
2022-11-02T20:32:25.836Z,3.70
2022-11-02T20:35:14.049Z,4.40
2022-11-02T20:38:01.673Z,4.40
2022-11-02T20:40:49.425Z,3.70
2022-11-02T20:43:39.980Z,3.80
2022-11-02T20:46:41.075Z,4.00
2022-11-02T20:49:49.389Z,3.60
2022-11-02T20:52:38.544Z,3.50
2022-11-02T20:55:26.325Z,4.00
2022-11-02T20:58:14.393Z,4.30
2022-11-02T21:01:02.965Z,3.40
2022-11-02T21:03:50.882Z,3.50
2022-11-02T21:06:38.911Z,3.10
2022-11-02T21:09:26.661Z,3.00
2022-11-02T21:12:33.644Z,3.00
2022-11-02T21:15:21.718Z,3.00
2022-11-02T21:18:09.769Z,3.10
2022-11-02T21:21:08.279Z,2.60
2022-11-02T21:23:58.627Z,3.00
2022-11-02T21:26:46.253Z,2.80
2022-11-02T21:29:35.062Z,2.70
2022-11-02T21:32:22.492Z,2.50
2022-11-02T21:35:11.084Z,2.60
2022-11-02T21:38:01.343Z,2.70
2022-11-02T21:40:52.513Z,2.70
2022-11-02T21:43:40.199Z,3.10
2022-11-02T21:46:28.593Z,2.60
2022-11-02T21:49:16.084Z,2.70
2022-11-02T21:52:04.134Z,2.80
2022-11-02T21:54:51.978Z,2.30
2022-11-02T21:57:39.440Z,2.10
2022-11-02T22:00:47.522Z,2.00
2022-11-02T22:03:35.344Z,2.10
2022-11-02T22:06:28.462Z,1.90
2022-11-02T22:09:19.062Z,2.20
2022-11-02T22:12:26.298Z,2.10
2022-11-02T22:15:14.021Z,2.10
2022-11-02T22:18:01.608Z,1.90
2022-11-02T22:20:56.178Z,1.90
2022-11-02T22:23:48.020Z,2.10
2022-11-02T22:26:37.271Z,2.10
2022-11-02T22:29:25.065Z,1.70
2022-11-02T22:32:15.002Z,1.70
2022-11-02T22:35:03.136Z,1.70
2022-11-02T22:38:09.440Z,2.90
2022-11-02T22:41:02.275Z,1.90
2022-11-02T22:44:01.578Z,1.80
2022-11-02T22:46:51.191Z,1.60
2022-11-02T22:49:38.877Z,1.60
2022-11-02T22:52:26.455Z,1.80
2022-11-02T22:55:13.999Z,1.90
2022-11-02T22:58:01.801Z,1.70
2022-11-02T23:00:49.485Z,1.70
2022-11-02T23:03:37.704Z,2.00
2022-11-02T23:06:26.195Z,1.80
2022-11-02T23:09:14.168Z,2.00
2022-11-02T23:12:01.539Z,1.50
2022-11-02T23:14:49.271Z,2.20
2022-11-02T23:17:37.003Z,1.90
2022-11-02T23:20:24.650Z,1.80
2022-11-02T23:23:30.524Z,1.60
2022-11-02T23:26:18.648Z,1.60
2022-11-02T23:29:24.694Z,1.50
2022-11-02T23:32:28.218Z,1.30
2022-11-02T23:35:33.984Z,1.60
2022-11-02T23:38:21.916Z,1.60
2022-11-02T23:41:09.656Z,1.70
2022-11-02T23:48:49.613Z,1.90
2022-11-02T23:51:59.683Z,1.90
2022-11-02T23:55:06.043Z,2.20
2022-11-02T23:57:54.494Z,2.00
